Time;durP1;ratioP1;P1;durP2;ratioP2;P2;SDS_P1;SDS_P2;PMS_P1;PMS_P2;Temp;Humidity;BMP_temperature;BMP_pressure;BME280_temperature;BME280_humidity;BME280_pressure;Samples;Min_cycle;Max_cycle;Signal;HPM_P1;HPM_P2
2021/12/02 00:01:01;;;;;;;3.35;1.88;;;;;;;5.62;95.66;98627.28;5013529;28;20038;-53
2021/12/02 00:03:28;;;;;;;2.50;1.27;;;;;;;5.63;95.17;98623.72;5010260;28;20140;-52
2021/12/02 00:05:55;;;;;;;2.10;1.15;;;;;;;5.61;94.67;98629.97;5013829;28;20056;-52
2021/12/02 00:08:21;;;;;;;1.90;0.70;;;;;;;5.61;93.22;98615.06;5014731;28;20055;-53
2021/12/02 00:10:48;;;;;;;2.25;0.90;;;;;;;5.67;93.48;98627.00;5009711;28;20049;-53
2021/12/02 00:13:14;;;;;;;5.03;0.85;;;;;;;5.68;93.39;98628.69;5013866;28;20058;-52
2021/12/02 00:15:55;;;;;;;2.15;0.80;;;;;;;5.67;93.08;98627.00;5010806;28;20162;-52
2021/12/02 00:21:04;;;;;;;1.42;0.68;;;;;;;5.66;93.89;98633.22;5017751;28;20049;-53
2021/12/02 00:23:54;;;;;;;1.65;0.80;;;;;;;5.65;93.97;98631.53;5013447;28;20053;-52
2021/12/02 00:26:21;;;;;;;1.48;1.00;;;;;;;5.69;94.09;98633.00;5013409;28;20050;-51
2021/12/02 00:28:57;;;;;;;2.03;0.90;;;;;;;5.67;93.94;98634.88;5014877;28;20045;-53
2021/12/02 00:31:28;;;;;;;2.00;1.02;;;;;;;5.64;94.23;98638.53;5016710;28;20048;-54
2021/12/02 00:34:06;;;;;;;1.77;0.95;;;;;;;5.66;94.53;98635.84;5013248;28;20514;-51
2021/12/02 00:36:34;;;;;;;2.30;1.10;;;;;;;5.72;94.29;98639.88;5009784;28;20058;-53
2021/12/02 00:39:07;;;;;;;2.25;1.08;;;;;;;5.72;94.46;98643.38;5016254;28;20042;-53
2021/12/02 00:41:34;;;;;;;2.35;1.50;;;;;;;5.73;94.32;98645.06;5015417;28;20153;-52
2021/12/02 00:44:01;;;;;;;3.47;1.92;;;;;;;5.76;94.80;98644.91;5008922;28;20052;-54
2021/12/02 00:46:33;;;;;;;3.97;2.13;;;;;;;5.77;94.85;98651.84;5012038;28;20083;-52
2021/12/02 00:49:03;;;;;;;5.28;2.58;;;;;;;5.79;95.06;98647.34;5018758;28;20045;-52
2021/12/02 00:51:32;;;;;;;6.63;2.72;;;;;;;5.79;95.52;98644.72;5014908;28;20037;-54
2021/12/02 00:54:09;;;;;;;6.18;2.60;;;;;;;5.78;95.69;98644.81;5012016;28;20506;-53
2021/12/02 00:56:37;;;;;;;5.13;2.40;;;;;;;5.82;95.73;98654.22;5011762;28;20491;-51
2021/12/02 00:59:05;;;;;;;8.73;2.95;;;;;;;5.84;95.07;98661.06;5021121;28;20040;-53
2021/12/02 01:01:38;;;;;;;6.13;2.78;;;;;;;5.83;95.53;98655.88;5016590;28;20042;-53
2021/12/02 01:04:08;;;;;;;5.43;2.38;;;;;;;5.83;95.32;98658.50;4996178;28;20053;-52
2021/12/02 01:06:35;;;;;;;4.53;2.63;;;;;;;5.82;95.39;98662.97;5006418;28;20499;-53
2021/12/02 01:09:04;;;;;;;4.07;1.90;;;;;;;5.80;95.64;98662.19;5014294;28;20048;-52
2021/12/02 01:11:31;;;;;;;4.25;1.90;;;;;;;5.79;94.92;98657.88;5011409;28;20359;-53
2021/12/02 01:13:57;;;;;;;5.18;1.88;;;;;;;5.77;95.16;98656.25;5013062;28;20262;-53
2021/12/02 01:16:24;;;;;;;5.43;2.03;;;;;;;5.75;95.27;98658.97;5008645;28;20509;-52
2021/12/02 01:18:52;;;;;;;3.17;2.00;;;;;;;5.71;95.50;98656.56;5016092;28;20096;-57
2021/12/02 01:21:22;;;;;;;4.10;1.88;;;;;;;5.72;95.46;98653.03;5013398;28;20053;-52
2021/12/02 01:23:51;;;;;;;3.33;1.77;;;;;;;5.73;94.77;98670.47;5017315;28;20045;-52
2021/12/02 01:26:19;;;;;;;7.80;2.15;;;;;;;5.72;95.03;98664.38;5013154;28;20054;-54
2021/12/02 01:28:48;;;;;;;5.03;2.00;;;;;;;5.72;95.24;98664.38;5014946;28;20045;-54
2021/12/02 01:31:16;;;;;;;3.65;1.85;;;;;;;5.70;95.31;98668.84;5014293;28;20045;-53
2021/12/02 01:33:46;;;;;;;2.40;1.55;;;;;;;5.68;95.50;98673.34;5018397;28;20140;-54
2021/12/02 01:36:13;;;;;;;4.75;1.85;;;;;;;5.71;95.08;98667.06;5013972;28;20045;-54
2021/12/02 01:38:40;;;;;;;2.95;1.50;;;;;;;5.76;94.41;98670.31;5014561;28;20056;-53
2021/12/02 01:41:07;;;;;;;4.35;1.70;;;;;;;5.75;94.40;98672.09;5015534;28;20057;-52
2021/12/02 01:43:51;;;;;;;5.30;1.65;;;;;;;5.71;94.46;98675.81;5014681;28;20049;-53
2021/12/02 01:46:21;;;;;;;2.83;1.60;;;;;;;5.68;94.21;98670.72;5014928;28;20052;-52
2021/12/02 01:49:04;;;;;;;3.10;1.55;;;;;;;5.66;94.65;98677.00;5016135;28;20077;-51
2021/12/02 01:51:40;;;;;;;2.60;1.40;;;;;;;5.66;94.01;98684.88;5014739;28;20144;-52
2021/12/02 01:54:12;;;;;;;3.95;1.50;;;;;;;5.63;94.72;98686.75;5013965;28;20072;-57
2021/12/02 01:57:09;;;;;;;1.90;1.15;;;;;;;5.65;94.17;98686.66;5016721;28;20057;-54
2021/12/02 01:59:38;;;;;;;3.45;1.17;;;;;;;5.64;94.54;98679.72;5015608;28;20156;-52
2021/12/02 02:02:07;;;;;;;5.35;1.50;;;;;;;5.70;93.87;98681.97;5015725;28;20535;-56
2021/12/02 02:04:34;;;;;;;2.15;1.17;;;;;;;5.68;93.81;98673.34;5013863;28;20052;-54
2021/12/02 02:07:03;;;;;;;6.25;1.48;;;;;;;5.66;94.25;98675.22;5016190;28;20061;-52
2021/12/02 02:09:32;;;;;;;4.25;1.30;;;;;;;5.67;94.54;98681.34;5011877;28;20041;-52
2021/12/02 02:12:07;;;;;;;2.90;1.33;;;;;;;5.65;93.95;98676.16;5015588;28;20049;-52
2021/12/02 02:14:35;;;;;;;2.55;1.10;;;;;;;5.64;94.19;98683.19;5014328;28;20046;-51
2021/12/02 02:17:09;;;;;;;3.58;1.20;;;;;;;5.62;93.94;98678.94;5012971;28;20049;-53
2021/12/02 02:19:36;;;;;;;4.32;1.30;;;;;;;5.54;94.13;98665.38;5010844;28;20434;-52
2021/12/02 02:22:02;;;;;;;5.05;1.10;;;;;;;5.63;93.90;98672.75;5017644;28;20202;-53
2021/12/02 02:24:30;;;;;;;2.50;1.20;;;;;;;5.62;94.16;98678.94;5009268;28;20435;-51
2021/12/02 02:26:57;;;;;;;3.50;1.23;;;;;;;5.65;93.81;98673.53;5014666;28;20049;-53
2021/12/02 02:29:24;;;;;;;3.10;1.63;;;;;;;5.67;93.75;98673.44;5017668;28;20050;-52
2021/12/02 02:31:50;;;;;;;3.40;1.15;;;;;;;5.66;93.80;98667.34;5018946;28;20072;-52
2021/12/02 02:34:21;;;;;;;4.72;1.30;;;;;;;5.63;93.70;98670.13;5012555;28;20113;-51
2021/12/02 02:36:55;;;;;;;2.88;1.00;;;;;;;5.60;93.79;98670.28;5007160;28;20053;-51
2021/12/02 02:39:24;;;;;;;4.85;1.35;;;;;;;5.59;94.02;98668.59;5016968;28;20064;-53
2021/12/02 02:41:59;;;;;;;2.97;0.95;;;;;;;5.55;94.00;98672.31;5019726;28;20059;-53
2021/12/02 02:44:29;;;;;;;2.58;1.10;;;;;;;5.54;93.81;98676.72;5012594;28;20522;-51
2021/12/02 02:46:56;;;;;;;2.33;1.10;;;;;;;5.46;94.36;98667.56;5010568;28;20719;-52
2021/12/02 02:49:23;;;;;;;4.80;1.30;;;;;;;5.51;94.11;98678.69;5014254;28;20116;-53
2021/12/02 02:51:49;;;;;;;3.45;1.55;;;;;;;5.47;95.16;98683.25;5013945;28;20056;-50
2021/12/02 02:54:17;;;;;;;3.85;1.27;;;;;;;5.44;95.36;98674.69;5015749;28;20060;-52
2021/12/02 02:56:53;;;;;;;4.30;1.50;;;;;;;5.37;95.65;98668.88;5011591;28;20048;-53
2021/12/02 02:59:37;;;;;;;5.40;1.30;;;;;;;5.38;96.05;98675.00;5015450;28;20511;-52
2021/12/02 03:02:15;;;;;;;2.17;1.15;;;;;;;5.32;96.35;98680.59;5011639;28;20038;-52
2021/12/02 03:05:12;;;;;;;2.47;1.30;;;;;;;5.25;97.39;98675.66;5014547;28;20128;-52
2021/12/02 03:07:38;;;;;;;;;;;;;;;5.20;97.48;98672.41;5010688;28;20059;-52
2021/12/02 03:10:29;;;;;;;3.70;1.17;;;;;;;5.19;98.02;98669.91;5013995;28;20052;-53
2021/12/02 03:13:11;;;;;;;5.90;1.38;;;;;;;5.16;97.44;98659.56;5010970;28;20112;-52
2021/12/02 03:18:23;;;;;;;4.53;1.25;;;;;;;5.07;97.90;98670.50;5013288;28;20550;-53
2021/12/02 03:20:50;;;;;;;6.28;0.90;;;;;;;5.02;97.41;98664.66;5017447;28;20055;-52
2021/12/02 03:23:16;;;;;;;3.40;1.25;;;;;;;4.97;97.84;98662.28;5014239;28;20169;-54
2021/12/02 03:25:43;;;;;;;3.70;0.93;;;;;;;4.96;97.52;98672.84;5011597;28;20510;-53
2021/12/02 03:28:10;;;;;;;6.00;1.20;;;;;;;4.96;97.62;98678.09;5005778;28;20049;-53
2021/12/02 03:30:36;;;;;;;5.95;1.13;;;;;;;4.92;97.13;98666.91;5017231;28;20060;-52
2021/12/02 03:33:03;;;;;;;6.43;1.35;;;;;;;4.93;96.98;98671.22;5007866;28;20041;-52
2021/12/02 03:35:30;;;;;;;4.78;0.95;;;;;;;4.92;97.01;98674.78;5004412;28;20168;-53
2021/12/02 03:38:05;;;;;;;4.75;1.20;;;;;;;4.90;96.69;98671.38;5013776;28;20048;-53
2021/12/02 03:40:32;;;;;;;3.83;1.00;;;;;;;4.89;96.91;98672.31;5005167;28;22606;-53
2021/12/02 03:42:58;;;;;;;6.22;1.17;;;;;;;4.76;97.01;98656.34;5005630;28;20057;-53
2021/12/02 03:45:41;;;;;;;3.28;1.02;;;;;;;4.87;96.89;98682.91;5005301;28;20049;-53
2021/12/02 03:48:07;;;;;;;5.28;1.27;;;;;;;4.89;97.02;98674.94;5008874;28;20054;-53
2021/12/02 03:50:33;;;;;;;8.98;1.30;;;;;;;4.85;97.06;98671.63;5008370;28;20667;-54
2021/12/02 03:53:00;;;;;;;5.57;1.30;;;;;;;4.86;96.64;98672.47;5009795;28;20068;-59
2021/12/02 03:55:27;;;;;;;3.63;1.20;;;;;;;4.78;96.97;98651.03;5009504;28;20057;-53
2021/12/02 03:57:53;;;;;;;6.60;1.13;;;;;;;4.89;96.97;98678.41;5009425;28;20041;-52
2021/12/02 04:00:20;;;;;;;5.68;1.38;;;;;;;4.94;96.60;98678.16;5011797;28;20056;-54
2021/12/02 04:02:51;;;;;;;5.60;1.05;;;;;;;4.94;95.37;98675.53;5011002;28;20045;-53
2021/12/02 04:05:18;;;;;;;12.75;1.77;;;;;;;4.92;95.67;98665.13;5008534;28;20128;-60
2021/12/02 04:07:44;;;;;;;8.57;0.90;;;;;;;4.91;95.28;98670.44;5010739;28;20045;-55
2021/12/02 04:10:11;;;;;;;3.67;0.93;;;;;;;4.92;95.34;98666.91;5005816;28;20061;-53
2021/12/02 04:15:27;;;;;;;4.72;1.50;;;;;;;4.85;95.47;98663.75;5006615;28;20049;-52
2021/12/02 04:17:54;;;;;;;;;;;;;;;4.86;96.32;98664.63;5006373;28;20525;-54
2021/12/02 04:20:22;;;;;;;8.68;1.30;;;;;;;4.85;96.17;98668.16;5010708;28;19922;-54
2021/12/02 04:22:50;;;;;;;4.43;1.52;;;;;;;4.83;96.32;98667.38;5005450;28;20052;-53
2021/12/02 04:25:18;;;;;;;4.13;1.35;;;;;;;4.78;96.50;98664.16;5005008;28;20061;-53
2021/12/02 04:27:45;;;;;;;3.42;0.70;;;;;;;4.79;96.12;98666.69;5005896;28;20048;-52
2021/12/02 04:30:15;;;;;;;3.58;1.05;;;;;;;4.75;95.82;98664.28;5012491;28;20056;-56
2021/12/02 04:32:42;;;;;;;5.22;1.23;;;;;;;4.69;96.69;98669.88;5011632;28;20037;-52
2021/12/02 04:35:11;;;;;;;9.95;1.38;;;;;;;4.65;96.75;98666.53;5007326;28;20045;-54
2021/12/02 04:37:39;;;;;;;7.03;1.45;;;;;;;4.67;96.79;98669.09;5004994;28;20136;-53
2021/12/02 04:40:06;;;;;;;4.20;0.68;;;;;;;4.65;97.18;98674.41;5007908;28;20220;-52
2021/12/02 04:42:33;;;;;;;5.95;1.05;;;;;;;4.56;96.82;98659.97;5003764;28;20049;-53
2021/12/02 04:45:00;;;;;;;5.45;1.33;;;;;;;4.65;96.95;98669.16;5008872;28;20444;-53
2021/12/02 04:47:26;;;;;;;5.53;1.73;;;;;;;4.62;96.82;98677.19;5002836;28;20152;-53
2021/12/02 04:49:53;;;;;;;7.05;1.80;;;;;;;4.60;97.30;98676.41;5004012;28;20045;-52
2021/12/02 04:52:19;;;;;;;6.70;1.20;;;;;;;4.51;96.44;98661.16;5008510;28;20042;-54
2021/12/02 04:54:46;;;;;;;8.60;1.45;;;;;;;4.57;97.43;98676.56;5010608;28;20053;-53
2021/12/02 04:57:13;;;;;;;7.00;1.38;;;;;;;4.59;96.78;98675.56;5002468;28;20044;-53
2021/12/02 04:59:39;;;;;;;4.90;1.13;;;;;;;4.56;97.03;98670.47;5012506;28;20037;-51
2021/12/02 05:02:06;;;;;;;3.28;1.30;;;;;;;4.54;97.50;98666.25;5016209;28;20065;-53
2021/12/02 05:04:33;;;;;;;5.70;1.08;;;;;;;4.52;97.20;98666.31;5016939;28;20049;-52
2021/12/02 05:06:59;;;;;;;5.47;1.40;;;;;;;4.56;97.34;98678.31;5004844;28;20067;-52
2021/12/02 05:09:26;;;;;;;5.05;1.02;;;;;;;4.55;96.76;98675.81;5013121;28;20696;-52
2021/12/02 05:11:52;;;;;;;8.60;1.35;;;;;;;4.64;95.94;98671.88;5014146;28;20123;-53
2021/12/02 05:14:19;;;;;;;6.10;1.40;;;;;;;4.58;95.38;98675.63;5012041;28;20053;-53
2021/12/02 05:16:46;;;;;;;4.28;1.00;;;;;;;4.59;96.09;98677.31;5006228;28;20054;-53
2021/12/02 05:19:12;;;;;;;4.90;1.10;;;;;;;4.52;96.21;98675.94;5017004;28;20130;-52
2021/12/02 05:21:39;;;;;;;4.72;0.90;;;;;;;4.52;96.52;98673.34;5016188;28;20049;-53
2021/12/02 05:24:05;;;;;;;3.92;1.10;;;;;;;4.49;95.96;98679.56;5019663;28;20061;-52
2021/12/02 05:26:32;;;;;;;3.20;0.90;;;;;;;4.49;96.31;98673.47;5007419;28;20053;-52
2021/12/02 05:28:59;;;;;;;4.93;1.42;;;;;;;4.49;96.46;98686.59;5012417;28;20049;-52
2021/12/02 05:31:25;;;;;;;4.45;1.05;;;;;;;4.45;96.26;98685.88;5018056;28;20053;-53
2021/12/02 05:33:52;;;;;;;6.50;1.20;;;;;;;4.42;97.23;98675.53;5020918;28;20041;-53
2021/12/02 05:36:19;;;;;;;7.70;1.30;;;;;;;4.41;96.97;98681.69;5012216;28;20498;-53
2021/12/02 05:38:45;;;;;;;7.15;1.30;;;;;;;4.40;96.99;98677.41;5018705;28;20045;-52
2021/12/02 05:41:14;;;;;;;6.03;1.40;;;;;;;4.41;97.00;98670.38;5013905;28;20053;-55
2021/12/02 05:43:41;;;;;;;5.65;0.95;;;;;;;4.44;96.65;98671.06;5013468;28;20033;-53
2021/12/02 05:46:08;;;;;;;5.10;1.10;;;;;;;4.42;96.66;98675.53;5015180;28;20058;-53
2021/12/02 05:48:34;;;;;;;4.20;1.52;;;;;;;4.41;97.66;98675.63;5017402;28;20049;-53
2021/12/02 05:51:01;;;;;;;6.55;1.40;;;;;;;4.39;96.96;98665.25;5017300;28;20045;-52
2021/12/02 05:53:27;;;;;;;5.93;1.45;;;;;;;4.26;96.85;98655.41;5011686;28;20060;-52
2021/12/02 05:55:54;;;;;;;5.75;1.30;;;;;;;4.33;97.56;98680.41;5014826;28;20045;-51
2021/12/02 05:58:20;;;;;;;2.33;1.00;;;;;;;4.32;97.01;98682.16;5007951;28;20058;-55
2021/12/02 06:00:47;;;;;;;4.82;1.20;;;;;;;4.32;96.89;98676.06;5009188;28;20131;-54
2021/12/02 06:03:14;;;;;;;6.80;1.15;;;;;;;4.38;96.24;98670.56;5011516;28;20495;-52
2021/12/02 06:05:43;;;;;;;8.18;1.10;;;;;;;4.35;96.30;98674.16;5008942;28;20049;-52
2021/12/02 06:08:10;;;;;;;3.65;1.58;;;;;;;4.41;96.44;98684.31;5007324;28;20102;-58
2021/12/02 06:10:36;;;;;;;4.65;1.45;;;;;;;4.39;96.43;98680.09;5006763;28;20060;-53
2021/12/02 06:13:02;;;;;;;7.25;1.35;;;;;;;4.35;96.08;98687.25;5014302;28;20411;-53
2021/12/02 06:15:29;;;;;;;7.85;1.90;;;;;;;4.33;96.83;98689.09;5007475;28;20129;-53
2021/12/02 06:17:55;;;;;;;4.47;1.15;;;;;;;4.20;97.07;98673.16;5005800;28;20049;-52
2021/12/02 06:20:22;;;;;;;3.38;1.20;;;;;;;4.31;97.47;98690.94;5008363;28;20056;-53
2021/12/02 06:22:49;;;;;;;5.07;1.23;;;;;;;4.38;97.57;98704.63;5006235;28;20049;-54
2021/12/02 06:27:44;;;;;;;5.72;1.55;;;;;;;4.40;97.54;98700.16;5005460;28;20436;-53
2021/12/02 06:30:12;;;;;;;3.85;1.52;;;;;;;4.35;97.05;98682.03;5013791;28;20063;-52
2021/12/02 06:32:38;;;;;;;4.10;1.60;;;;;;;4.42;97.43;98693.03;5009912;28;20054;-53
2021/12/02 06:35:06;;;;;;;5.15;1.20;;;;;;;4.39;97.33;98701.94;5011252;28;20498;-53
2021/12/02 06:37:33;;;;;;;3.83;1.80;;;;;;;4.38;97.91;98707.25;5007522;28;20127;-53
2021/12/02 06:39:59;;;;;;;3.80;1.45;;;;;;;4.39;97.88;98707.16;5017284;28;20045;-53
2021/12/02 06:42:26;;;;;;;3.13;1.63;;;;;;;4.29;98.23;98691.94;5008390;28;20053;-53
2021/12/02 06:44:52;;;;;;;6.18;1.60;;;;;;;4.36;98.34;98714.31;5011489;28;20049;-52
2021/12/02 06:47:24;;;;;;;3.33;1.30;;;;;;;4.21;98.64;98694.94;4998394;28;20045;-53
2021/12/02 06:49:50;;;;;;;5.35;1.80;;;;;;;4.17;99.43;98699.47;4998424;28;20406;-53
2021/12/02 06:52:17;;;;;;;4.13;1.60;;;;;;;4.26;100.00;98715.66;4996209;28;20053;-53
2021/12/02 06:54:43;;;;;;;9.45;1.77;;;;;;;4.16;100.00;98716.13;5010293;28;20435;-52
2021/12/02 06:57:10;;;;;;;6.10;2.28;;;;;;;4.11;100.00;98720.72;5002540;28;20046;-52
2021/12/02 06:59:38;;;;;;;8.88;1.92;;;;;;;4.12;100.00;98719.78;5000790;28;20430;-52
2021/12/02 07:02:05;;;;;;;6.05;2.15;;;;;;;4.06;100.00;98721.88;5003971;28;20232;-52
2021/12/02 07:04:32;;;;;;;7.07;2.22;;;;;;;4.02;100.00;98720.31;5004701;28;21209;-52
2021/12/02 07:06:58;;;;;;;4.63;2.05;;;;;;;4.03;100.00;98720.25;4997478;28;21093;-64
2021/12/02 07:09:24;;;;;;;5.43;2.38;;;;;;;3.99;100.00;98730.94;5002522;28;20049;-51
2021/12/02 07:11:51;;;;;;;6.28;2.33;;;;;;;3.91;100.00;98718.22;5001016;28;20045;-51
2021/12/02 07:14:20;;;;;;;6.72;2.58;;;;;;;3.79;100.00;98701.28;5007748;28;20050;-52
2021/12/02 07:16:46;;;;;;;5.90;2.33;;;;;;;3.97;100.00;98727.53;4997998;28;20487;-52
2021/12/02 07:19:13;;;;;;;6.53;2.40;;;;;;;3.94;100.00;98719.81;5004519;28;20456;-51
2021/12/02 07:21:41;;;;;;;3.88;2.40;;;;;;;3.73;100.00;98688.50;4996127;28;20049;-51
2021/12/02 07:24:13;;;;;;;7.07;2.53;;;;;;;3.96;100.00;98721.44;5004292;28;20057;-53
2021/12/02 07:26:59;;;;;;;6.78;2.90;;;;;;;3.94;100.00;98719.81;5003525;28;20049;-53
2021/12/02 07:29:26;;;;;;;8.00;3.20;;;;;;;3.89;100.00;98725.28;5008817;28;20060;-53
2021/12/02 07:31:53;;;;;;;7.65;3.47;;;;;;;3.87;100.00;98722.72;5002106;28;20053;-53
2021/12/02 07:34:23;;;;;;;10.05;3.50;;;;;;;3.92;100.00;98726.91;4998514;28;20048;-52
2021/12/02 07:36:51;;;;;;;9.40;3.00;;;;;;;3.90;100.00;98721.75;4999985;28;20050;-53
2021/12/02 07:39:18;;;;;;;8.00;3.40;;;;;;;3.95;100.00;98734.59;5010700;28;20591;-54
2021/12/02 07:41:46;;;;;;;8.00;3.00;;;;;;;4.01;100.00;98737.78;5017414;28;20050;-53
2021/12/02 07:44:13;;;;;;;8.25;3.30;;;;;;;3.97;100.00;98738.00;5011896;28;20503;-52
2021/12/02 07:46:40;;;;;;;6.97;3.38;;;;;;;3.95;100.00;98745.94;5003570;28;20108;-54
2021/12/02 07:49:14;;;;;;;8.25;3.40;;;;;;;4.25;100.00;98753.31;5011798;28;20116;-52
2021/12/02 07:51:44;;;;;;;7.40;3.17;;;;;;;4.24;100.00;98755.06;4999296;28;20149;-54
2021/12/02 07:54:12;;;;;;;8.50;3.42;;;;;;;4.21;100.00;98757.81;5001022;28;20659;-52
2021/12/02 07:56:39;;;;;;;6.63;3.53;;;;;;;4.16;100.00;98760.66;5004932;28;20049;-52
2021/12/02 07:59:05;;;;;;;8.27;2.35;;;;;;;4.16;100.00;98762.41;5000226;28;20477;-51
2021/12/02 08:01:35;;;;;;;5.15;2.78;;;;;;;4.02;100.00;98746.50;5003806;28;20041;-52
2021/12/02 08:04:02;;;;;;;8.55;3.20;;;;;;;4.15;100.00;98768.59;5003705;28;20061;-51
2021/12/02 08:06:29;;;;;;;5.30;2.75;;;;;;;4.18;100.00;98760.59;5006634;28;20053;-52
2021/12/02 08:08:55;;;;;;;6.55;3.25;;;;;;;4.21;100.00;98773.53;5002816;28;20042;-53
2021/12/02 08:11:22;;;;;;;5.70;2.80;;;;;;;4.13;100.00;98759.94;5003558;28;20046;-52
2021/12/02 08:13:51;;;;;;;4.90;2.83;;;;;;;4.23;100.00;98782.19;4997898;28;20037;-52
2021/12/02 08:16:20;;;;;;;8.35;3.35;;;;;;;4.25;100.00;98780.31;5004732;28;20041;-53
2021/12/02 08:18:47;;;;;;;7.25;2.80;;;;;;;4.27;100.00;98775.84;5005281;28;20103;-53
2021/12/02 08:21:13;;;;;;;6.82;3.17;;;;;;;4.29;100.00;98784.50;4994543;28;20113;-53
2021/12/02 08:23:40;;;;;;;6.90;3.00;;;;;;;4.29;100.00;98781.88;5005235;28;20045;-51
2021/12/02 08:26:06;;;;;;;7.25;3.03;;;;;;;4.26;100.00;98781.16;4997511;28;21322;-51
2021/12/02 08:28:33;;;;;;;7.03;2.88;;;;;;;4.27;100.00;98788.97;4998850;28;20053;-52
2021/12/02 08:30:59;;;;;;;4.30;2.95;;;;;;;4.28;100.00;98789.81;5003048;28;20054;-52
2021/12/02 08:33:26;;;;;;;6.38;2.90;;;;;;;4.31;100.00;98795.75;5011965;28;20061;-53
2021/12/02 08:35:53;;;;;;;6.85;3.00;;;;;;;4.34;100.00;98800.88;5007496;28;20049;-52
2021/12/02 08:38:22;;;;;;;6.25;2.95;;;;;;;4.37;100.00;98799.88;5007346;28;20053;-54
2021/12/02 08:40:49;;;;;;;4.63;2.70;;;;;;;4.41;100.00;98804.03;5007024;28;20050;-53
2021/12/02 08:43:15;;;;;;;5.53;2.65;;;;;;;4.26;100.00;98787.25;5009494;28;20060;-52
2021/12/02 08:45:46;;;;;;;7.45;2.78;;;;;;;4.39;100.00;98804.13;5003627;28;20073;-53
2021/12/02 08:48:13;;;;;;;5.90;3.07;;;;;;;4.41;100.00;98811.88;5002890;28;20111;-53
2021/12/02 08:50:40;;;;;;;6.00;2.50;;;;;;;4.44;100.00;98804.75;5011975;28;20042;-60
2021/12/02 08:53:07;;;;;;;5.05;2.83;;;;;;;4.45;100.00;98813.47;5008610;28;20056;-52
2021/12/02 08:55:35;;;;;;;7.82;2.60;;;;;;;4.46;100.00;98816.00;5016625;28;20041;-53
2021/12/02 08:58:04;;;;;;;5.43;2.67;;;;;;;4.46;100.00;98807.28;5010250;28;20049;-53
2021/12/02 09:00:36;;;;;;;4.63;2.67;;;;;;;4.50;100.00;98814.09;5007907;28;20068;-52
2021/12/02 09:03:04;;;;;;;6.38;2.33;;;;;;;4.57;100.00;98813.72;5012604;28;20047;-53
2021/12/02 09:05:32;;;;;;;3.72;2.05;;;;;;;4.66;100.00;98817.69;5019341;28;20527;-53
2021/12/02 09:07:58;;;;;;;5.85;2.58;;;;;;;4.70;100.00;98819.25;5013287;28;20049;-52
2021/12/02 09:10:27;;;;;;;3.92;2.75;;;;;;;4.74;100.00;98817.31;5018770;28;20045;-51
2021/12/02 09:12:56;;;;;;;4.32;2.50;;;;;;;4.77;100.00;98815.38;5017584;28;20073;-52
2021/12/02 09:15:24;;;;;;;3.78;2.00;;;;;;;4.84;99.06;98823.81;5009227;28;20743;-52
2021/12/02 09:17:54;;;;;;;6.50;2.95;;;;;;;4.93;97.20;98825.97;5008239;28;20525;-53
2021/12/02 09:20:20;;;;;;;3.95;2.10;;;;;;;4.90;97.50;98818.25;5011649;28;20064;-53
2021/12/02 09:22:47;;;;;;;5.72;2.75;;;;;;;4.95;95.45;98818.88;5015371;28;20050;-54
2021/12/02 09:25:16;;;;;;;3.97;2.13;;;;;;;5.04;94.76;98833.31;5013555;28;20601;-55
2021/12/02 09:27:44;;;;;;;5.10;2.58;;;;;;;5.12;93.88;98831.19;5010480;28;20057;-53
2021/12/02 09:30:11;;;;;;;3.78;2.28;;;;;;;5.13;93.48;98840.75;5016803;28;20443;-51
2021/12/02 09:32:38;;;;;;;4.70;2.90;;;;;;;5.21;92.46;98834.19;5014297;28;20060;-53
2021/12/02 09:35:06;;;;;;;3.47;2.40;;;;;;;5.26;92.31;98845.31;5018541;28;20047;-52
2021/12/02 09:37:33;;;;;;;6.95;2.90;;;;;;;5.34;91.35;98854.59;5000425;28;20053;-53
2021/12/02 09:40:05;;;;;;;5.95;2.78;;;;;;;5.40;91.37;98855.09;5016472;28;20121;-53
2021/12/02 09:42:32;;;;;;;4.05;2.67;;;;;;;5.42;91.48;98855.88;5015326;28;20045;-53
2021/12/02 09:45:01;;;;;;;5.30;2.95;;;;;;;5.35;92.28;98857.13;5016860;28;20060;-53
2021/12/02 09:47:33;;;;;;;4.43;2.63;;;;;;;5.36;92.48;98861.44;5006955;28;20593;-57
2021/12/02 09:50:05;;;;;;;5.45;2.92;;;;;;;5.39;93.52;98861.28;5014983;28;20479;-53
2021/12/02 09:52:38;;;;;;;4.85;2.45;;;;;;;5.40;93.25;98862.97;5012939;28;20132;-59
2021/12/02 09:55:19;;;;;;;5.03;3.00;;;;;;;5.34;93.33;98868.56;5018189;28;20049;-52
2021/12/02 09:57:51;;;;;;;5.10;2.25;;;;;;;5.24;92.10;98872.53;5010697;28;20054;-52
2021/12/02 10:00:24;;;;;;;5.85;2.38;;;;;;;5.18;90.41;98876.34;5015549;28;20056;-54
2021/12/02 10:03:03;;;;;;;5.10;2.45;;;;;;;5.02;90.46;98872.78;5015628;28;20116;-59
2021/12/02 10:05:45;;;;;;;4.80;2.00;;;;;;;4.90;89.93;98862.84;5019254;28;20045;-55
2021/12/02 10:08:21;;;;;;;3.13;1.60;;;;;;;4.73;90.26;98842.66;5014747;28;20162;-53
2021/12/02 10:10:55;;;;;;;4.50;1.65;;;;;;;4.73;90.28;98852.31;5012834;28;20049;-53
2021/12/02 10:16:09;;;;;;;3.80;1.10;;;;;;;4.71;89.21;98865.53;5008397;28;20065;-53
2021/12/02 10:18:53;;;;;;;3.33;1.60;;;;;;;4.65;89.61;98862.31;5013239;28;20100;-54
2021/12/02 10:21:38;;;;;;;3.50;1.73;;;;;;;4.67;89.20;98855.25;5012763;28;20049;-52
2021/12/02 10:24:16;;;;;;;3.25;1.58;;;;;;;4.68;89.20;98859.56;5002400;28;20558;-53
2021/12/02 10:26:49;;;;;;;2.58;1.20;;;;;;;4.62;88.90;98857.22;5011317;28;20045;-52
2021/12/02 10:29:35;;;;;;;3.05;1.65;;;;;;;4.61;90.00;98855.53;5011291;28;20053;-53
2021/12/02 10:32:09;;;;;;;5.93;1.48;;;;;;;4.60;89.60;98859.91;5010924;28;20049;-54
2021/12/02 10:34:50;;;;;;;4.80;1.70;;;;;;;4.57;89.88;98857.44;5008016;28;20388;-53
2021/12/02 10:37:18;;;;;;;;;;;;;;;4.57;89.87;98855.66;5011420;28;20049;-53
2021/12/02 10:40:01;;;;;;;6.70;2.30;;;;;;;4.66;90.03;98864.88;5008046;28;19921;-52
2021/12/02 10:42:29;;;;;;;5.18;1.92;;;;;;;4.76;89.81;98850.41;5014213;28;20102;-52
2021/12/02 10:45:00;;;;;;;2.80;1.90;;;;;;;5.31;89.10;98870.47;5014925;28;20140;-52
2021/12/02 10:47:28;;;;;;;4.15;2.28;;;;;;;5.86;86.22;98866.72;5010428;28;20045;-53
2021/12/02 10:50:21;;;;;;;5.05;2.17;;;;;;;6.42;83.18;98864.69;5007615;28;20049;-52
2021/12/02 10:52:50;;;;;;;4.20;1.98;;;;;;;6.76;79.88;98869.81;5011896;28;20054;-52
2021/12/02 10:55:22;;;;;;;5.72;2.28;;;;;;;7.08;78.14;98870.63;5014486;28;20052;-52
2021/12/02 10:57:57;;;;;;;3.13;1.80;;;;;;;7.05;77.41;98865.53;5012718;28;20174;-52
2021/12/02 11:00:33;;;;;;;3.88;1.67;;;;;;;6.66;75.88;98853.66;5008132;28;20136;-53
2021/12/02 11:03:08;;;;;;;3.78;0.93;;;;;;;6.31;77.00;98867.88;5012228;28;20041;-53
2021/12/02 11:05:36;;;;;;;5.07;1.20;;;;;;;5.94;78.69;98877.72;5012902;28;20053;-54
2021/12/02 11:08:05;;;;;;;6.18;1.80;;;;;;;5.69;81.70;98874.63;5004504;28;20046;-53
2021/12/02 11:10:40;;;;;;;4.05;1.90;;;;;;;5.42;83.70;98879.50;5010649;28;20068;-53
2021/12/02 11:13:09;;;;;;;6.55;2.13;;;;;;;5.24;85.15;98877.78;5012677;28;20414;-51
2021/12/02 11:15:38;;;;;;;3.30;2.13;;;;;;;5.18;86.59;98881.59;5008279;28;20044;-53
2021/12/02 11:18:11;;;;;;;7.50;2.05;;;;;;;5.07;87.54;98864.66;5005016;28;20045;-53
2021/12/02 11:20:46;;;;;;;4.68;1.77;;;;;;;5.18;88.07;98880.75;5004993;28;20077;-52
2021/12/02 11:23:17;;;;;;;2.45;1.58;;;;;;;5.27;88.44;98868.00;5011804;28;20129;-52
2021/12/02 11:25:56;;;;;;;3.22;1.55;;;;;;;5.44;87.39;98866.31;5008091;28;20054;-51
2021/12/02 11:28:26;;;;;;;3.97;1.83;;;;;;;5.50;86.25;98871.25;5001259;28;20425;-52
2021/12/02 11:30:54;;;;;;;3.05;1.60;;;;;;;5.52;84.36;98877.25;5012961;28;20113;-52
2021/12/02 11:33:32;;;;;;;3.55;2.13;;;;;;;5.50;84.45;98880.00;5009522;28;20652;-53
2021/12/02 11:35:59;;;;;;;5.55;2.20;;;;;;;5.45;84.49;98857.50;5010115;28;20135;-54
2021/12/02 11:38:27;;;;;;;3.20;2.38;;;;;;;5.72;84.89;98871.84;4996928;28;20059;-54
2021/12/02 11:40:57;;;;;;;4.45;2.17;;;;;;;5.85;83.13;98869.44;5003833;28;20045;-52
2021/12/02 11:43:32;;;;;;;3.20;1.85;;;;;;;5.91;82.45;98872.63;5001575;28;20139;-52
2021/12/02 11:46:00;;;;;;;3.08;1.65;;;;;;;6.08;80.65;98869.13;5002068;28;20042;-52
2021/12/02 11:48:37;;;;;;;4.15;1.98;;;;;;;6.29;80.68;98865.38;4997908;28;20045;-52
2021/12/02 11:51:22;;;;;;;3.90;1.90;;;;;;;6.69;78.84;98858.75;5001361;28;20176;-52
2021/12/02 11:53:49;;;;;;;2.50;1.60;;;;;;;6.83;73.96;98859.75;4990947;28;20060;-53
2021/12/02 11:56:18;;;;;;;2.75;1.38;;;;;;;6.77;73.77;98871.47;4993853;28;20064;-53
2021/12/02 11:58:46;;;;;;;2.83;1.70;;;;;;;6.69;72.68;98868.44;4999749;28;20585;-53
2021/12/02 12:01:18;;;;;;;2.38;1.40;;;;;;;6.65;72.07;98873.00;4996315;28;20070;-52
2021/12/02 12:03:49;;;;;;;3.65;1.10;;;;;;;6.62;72.87;98869.69;5003116;28;20041;-54
2021/12/02 12:06:25;;;;;;;3.08;1.65;;;;;;;6.49;73.60;98866.88;5000079;28;20048;-52